KDBQ

Dubuque Regional Airport

Airport
ICAO code
KDBQ
Summary
ICAO Region
NAM
ICAO Territory
Location

Dubuque, Iowa,

Elevation
1077 ft
Coordinates
42° 24' 23" N , 90° 42' 18" W
KCC
Airport CFIT
Altimeter Temperature Error Correction
Metar
Observation
KDBQ 070853Z AUTO 02009KT 10SM CLR 04/02 A3036 RMK AO2 SLP285 T00440022 51014 $
Station
Dubuque, Dubuque Regional Airport
Date/Time
2022-10-07 08:53:00
Wind direction
20°
Wind speed
09 kts
Lowest cloud amount
n/a
Temperature
4.4°C
Dew point
2.2°C
Humidity
85%
Weather condition
n/a

Description

Dubuque Regional Airport is a public airport located 10 km south of Dubuque, Iowa .

Climatology

Humid continental climate (Köppen climate classification Dfa) - characterized by four seasons: cold, windy, snowy winters, mild springs, hot, humid summers, and crisp and relatively short autumns. Precipitation reaches its lowest in January and February and peaks in summer and latter half of spring.

Airport map

Aerial View

SKYbrary Partners:

Safety knowledge contributed by: